Aidamar — ICSJ — position and weather

sailwx.info

Track history (hours):
 
Tides and Currents Weather Stations Pressure Air Temp Water Temp Dewpoint Dewpoint Depression Visibility Wind Speed Wind Dir Waves Ship Positions

Aidamar

Last reported at 2015-Mar-28 03:33 UTC. Time now 2015-Mar-28 03:57 UTC.
Position N 53°58' E 008°34'.

Length 253 m; draft 7.3 m.

Type: Passenger vessel. MMSI: 247312900.

Date/timePositionNaut miles runAvg speedWind from/ knotsBaromVisibWave heightAir tempDewpointWater temp
2015-Mar-28 03:33N 53°58' E 008°34'1616.1
2015-Mar-28 02:33N 53°59' E 008°07'2019.8
2015-Mar-28 01:33N 53°55' E 007°34'2020.4
2015-Mar-28 00:33N 53°50' E 007°00'4020.1
2015-Mar-27 22:33N 53°40' E 005°55'2019.9
2015-Mar-27 21:33N 53°34' E 005°23'2019.6
2015-Mar-27 20:33N 53°27' E 004°52'6018.6
2015-Mar-27 17:20N 52°33' E 004°08'1417.6
2015-Mar-27 16:34N 52°29' E 004°29'5 4.9
2015-Mar-27 15:33N 52°28' E 004°37'8 8.1
2015-Mar-27 14:34N 52°25' E 004°49'4 4.2
2015-Mar-27 13:33N 52°23' E 004°55'0 0.0
2015-Mar-27 12:33N 52°23' E 004°55'0 0.0
2015-Mar-27 11:33N 52°23' E 004°55'0 0.0
2015-Mar-27 10:33N 52°23' E 004°55'0 0.0
2015-Mar-27 09:33N 52°23' E 004°55'0 0.0
2015-Mar-27 08:33N 52°23' E 004°55'0 0.0
2015-Mar-27 07:33N 52°23' E 004°55'0 0.0
2015-Mar-27 06:33N 52°23' E 004°55'0 0.0
2015-Mar-27 05:33N 52°23' E 004°55'0 0.0
2015-Mar-27 04:33N 52°23' E 004°55'0 0.0
2015-Mar-27 03:33N 52°23' E 004°55'0 0.0
2015-Mar-27 02:33N 52°23' E 004°55'0 0.0
2015-Mar-27 01:33N 52°23' E 004°55'0 0.0
2015-Mar-27 00:33N 52°23' E 004°55'0 0.0
2015-Mar-26 23:33N 52°23' E 004°55'0 0.0
2015-Mar-26 22:33N 52°23' E 004°55'0 0.0
2015-Mar-26 21:33N 52°23' E 004°55'0 0.0
2015-Mar-26 20:33N 52°23' E 004°55'0 0.0
2015-Mar-26 19:33N 52°23' E 004°55'0 0.0
2015-Mar-26 18:33N 52°23' E 004°55'0 0.0
2015-Mar-26 17:33N 52°23' E 004°55'0 0.0
2015-Mar-26 16:33N 52°23' E 004°55'0 0.0
2015-Mar-26 15:33N 52°23' E 004°55'0 0.0
2015-Mar-26 14:32N 52°23' E 004°55'0 0.0
2015-Mar-26 13:32N 52°23' E 004°55'0 0.0
2015-Mar-26 12:29N 52°23' E 004°55'0 0.0
2015-Mar-26 11:32N 52°23' E 004°55'0 0.0
2015-Mar-26 10:32N 52°23' E 004°55'0 0.0
2015-Mar-26 09:32N 52°23' E 004°55'0 0.0
2015-Mar-26 08:32N 52°23' E 004°55'0 0.0
2015-Mar-26 07:32N 52°23' E 004°55'0 0.0
2015-Mar-26 06:29N 52°23' E 004°55'0 0.0
2015-Mar-26 05:33N 52°23' E 004°55'2 2.1
2015-Mar-26 04:33N 52°24' E 004°53'8 7.5
2015-Mar-26 03:34N 52°27' E 004°41'3 3.5
2015-Mar-26 02:33N 52°28' E 004°36'1010.2
2015-Mar-26 01:33N 52°28' E 004°19'1514.9
2015-Mar-26 00:33N 52°27' E 003°55'1615.9
2015-Mar-25 23:32N 52°18' E 003°33'1818.4
2015-Mar-25 22:32N 52°07' E 003°08'2218.1
2015-Mar-25 21:20N 51°49' E 002°48'1619.5
2015-Mar-25 20:32N 51°34' E 002°43'1010.4
2015-Mar-25 19:33N 51°24' E 002°46'1413.8
2015-Mar-25 18:33N 51°24' E 003°08'4 4.3
2015-Mar-25 17:33N 51°20' E 003°12'0 0.0
2015-Mar-25 16:27N 51°20' E 003°12'0 0.0
2015-Mar-25 15:30N 51°20' E 003°12'0 0.0
2015-Mar-25 14:30N 51°20' E 003°12'0 0.0
2015-Mar-25 13:33N 51°20' E 003°12'0 0.0
2015-Mar-25 12:33N 51°20' E 003°12'0 0.0
2015-Mar-25 11:33N 51°20' E 003°12'0 0.0
2015-Mar-25 10:33N 51°20' E 003°12'0 0.0
2015-Mar-25 09:33N 51°20' E 003°12'0 0.0
2015-Mar-25 08:33N 51°20' E 003°12'7 6.6
2015-Mar-25 07:33N 51°24' E 003°04'1313.4
2015-Mar-25 06:33N 51°21' E 002°43'1010.0
2015-Mar-25 05:33N 51°21' E 002°27'9 8.9
2015-Mar-25 04:33N 51°17' E 002°15'1313.1
2015-Mar-25 03:33N 51°10' E 001°57'1717.4
2015-Mar-25 02:33N 50°60' E 001°34'1916.5
2015-Mar-25 01:26N 50°43' E 001°24'8216.8
2015-Mar-24 20:32N 49°45' W 000°08'1414.6
2015-Mar-24 19:33N 49°31' W 000°04'7 7.0
2015-Mar-24 18:32N 49°29' E 000°06'0 0.0
2015-Mar-24 17:33N 49°29' E 000°06'0 0.0
2015-Mar-24 16:32N 49°29' E 000°06'0 0.0
2015-Mar-24 15:31N 49°29' E 000°06'0 0.0
2015-Mar-24 14:32N 49°29' E 000°06'0 0.0
2015-Mar-24 13:32N 49°29' E 000°06'0 0.0
2015-Mar-24 12:33N 49°29' E 000°06'0 0.0
2015-Mar-24 11:33N 49°29' E 000°06'0 0.0
2015-Mar-24 10:33N 49°29' E 000°06'0 0.0
2015-Mar-24 09:33N 49°29' E 000°06'0 0.0
2015-Mar-24 08:33N 49°29' E 000°06'0 0.0
2015-Mar-24 07:32N 49°29' E 000°06'0 0.0
2015-Mar-24 06:34N 49°29' E 000°06'1 1.0
2015-Mar-24 05:34N 49°29' E 000°05'1211.8
2015-Mar-24 04:34N 49°33' W 000°12'8 7.7
2015-Mar-24 03:33N 49°38' W 000°21'8 8.2
2015-Mar-24 02:33N 49°46' W 000°25'4515.1
2015-Mar-23 23:33N 50°28' W 000°49'1514.8
2015-Mar-23 22:33N 50°42' W 000°58'1111.5
2015-Mar-23 21:33N 50°46' W 001°15'7 7.2
2015-Mar-23 20:34N 50°52' W 001°22'2 2.1
2015-Mar-23 19:33N 50°53' W 001°24'0 0.0
2015-Mar-23 18:30N 50°53' W 001°24'0 0.0
2015-Mar-23 17:30N 50°53' W 001°24'0 0.0
2015-Mar-23 16:33N 50°53' W 001°24'0 0.0
2015-Mar-23 15:33N 50°53' W 001°24'0 0.0
2015-Mar-23 14:30N 50°53' W 001°24'0 0.0
2015-Mar-23 13:33N 50°53' W 001°24'0 0.0
2015-Mar-23 12:33N 50°53' W 001°24'0 0.0
2015-Mar-23 11:33N 50°53' W 001°24'0 0.0
2015-Mar-23 10:33N 50°53' W 001°24'0 0.0
2015-Mar-23 09:33N 50°53' W 001°24'0 0.0
2015-Mar-23 08:33N 50°53' W 001°24'0 0.2
2015-Mar-23 07:33N 50°53' W 001°24'6 6.0
2015-Mar-23 06:33N 50°49' W 001°18'1010.1
2015-Mar-23 05:33N 50°44' W 001°04'1212.4
2015-Mar-23 04:33N 50°36' W 000°48'1717.1
2015-Mar-23 03:33N 50°33' W 000°22'27 9.0
2015-Mar-23 00:33N 50°36' E 000°21'7 6.8
2015-Mar-22 23:33N 50°38' E 000°31'7 6.9
2015-Mar-22 22:33N 50°41' E 000°40'1413.6
2015-Mar-22 21:33N 50°49' E 000°58'1716.3
2015-Mar-22 20:32N 50°59' E 001°19'1717.6
2015-Mar-22 19:33N 51°11' E 001°39'1515.5
2015-Mar-22 18:34N 51°23' E 001°55'1413.8
2015-Mar-22 17:33N 51°34' E 002°08'1413.1
2015-Mar-22 16:29N 51°44' E 002°23'2813.0
2015-Mar-22 14:19N 52°06' E 002°53'2614.3
2015-Mar-22 12:32N 52°26' E 003°17'6815.4
2015-Mar-22 08:09N 53°17' E 004°30'914.7
2015-Mar-22 07:34N 53°26' E 004°35'1413.5
2015-Mar-22 06:33N 53°34' E 004°54'1413.8
2015-Mar-22 05:34N 53°38' E 005°15'1515.1
2015-Mar-22 04:34N 53°43' E 005°40'1616.1
2015-Mar-22 03:33N 53°48' E 006°06'4715.7
2015-Mar-22 00:34N 53°60' E 007°23'1514.6
2015-Mar-21 23:33N 54°02' E 007°48'1414.2
2015-Mar-21 22:33N 54°00' E 008°12'1414.5
2015-Mar-21 21:33N 53°58' E 008°36'1414.1
2015-Mar-21 20:33N 53°51' E 008°57'1414.1
2015-Mar-21 19:33N 53°50' E 009°21'1514.9
2015-Mar-21 18:34N 53°37' E 009°33'1312.7
2015-Mar-21 17:34N 53°33' E 009°53'2 1.8
2015-Mar-21 16:29N 53°33' E 009°56'0 0.0
2015-Mar-21 15:32N 53°33' E 009°56'0 0.0
2015-Mar-21 14:32N 53°33' E 009°56'0 0.0
2015-Mar-21 13:31N 53°33' E 009°56'0 0.0
2015-Mar-21 12:31N 53°33' E 009°56'0 0.0
2015-Mar-21 11:31N 53°33' E 009°56'0 0.0
2015-Mar-21 10:31N 53°33' E 009°56'0 0.0
2015-Mar-21 09:22N 53°33' E 009°56'0 0.0
2015-Mar-21 08:31N 53°33' E 009°56'0 0.0
2015-Mar-21 07:31N 53°33' E 009°56'0 0.0
2015-Mar-21 06:32N 53°33' E 009°56'4 4.2
2015-Mar-21 05:33N 53°33' E 009°49'1010.1
2015-Mar-21 04:33N 53°37' E 009°34'1211.7
2015-Mar-21 03:34N 53°47' E 009°23'1211.5
2015-Mar-21 02:33N 53°53' E 009°07'1211.6
2015-Mar-21 01:34N 53°50' E 008°47'1514.5
2015-Mar-21 00:33N 53°59' E 008°27'1714.8
2015-Mar-20 23:26N 53°58' E 007°59'1416.0
2015-Mar-20 22:33N 53°55' E 007°35'1716.8
2015-Mar-20 21:33N 53°51' E 007°08'39 9.9
2015-Mar-20 17:33N 53°41' E 006°04'7 7.4
2015-Mar-20 16:33N 53°38' E 005°52'7 6.7
2015-Mar-20 15:33N 53°36' E 005°41'7 7.0
2015-Mar-20 14:33N 53°34' E 005°30'7 6.7
2015-Mar-20 13:33N 53°32' E 005°19'7 6.6
2015-Mar-20 12:33N 53°30' E 005°08'6 6.5
2015-Mar-20 11:33N 53°28' E 004°58'7 6.6
2015-Mar-20 10:34N 53°25' E 004°48'7 6.4
2015-Mar-20 09:30N 53°20' E 004°40'8 6.9
2015-Mar-20 08:22N 53°13' E 004°34'23 7.4
2015-Mar-20 05:20N 52°53' E 004°17'19 8.8
2015-Mar-20 03:09N 52°35' E 004°07'915.0
2015-Mar-20 02:34N 52°30' E 004°19'1110.7
2015-Mar-20 01:34N 52°28' E 004°36'2 2.4
2015-Mar-20 00:33N 52°28' E 004°40'8 7.7
2015-Mar-19 23:34N 52°25' E 004°52'3 2.9
2015-Mar-19 22:32N 52°23' E 004°55'0 0.0
2015-Mar-19 21:32N 52°23' E 004°55'0 0.0
2015-Mar-19 20:32N 52°23' E 004°55'0 0.0
2015-Mar-19 19:32N 52°23' E 004°55'0 0.0
2015-Mar-19 18:32N 52°23' E 004°55'0 0.0
2015-Mar-19 17:32N 52°23' E 004°55'0 0.0
2015-Mar-19 16:32N 52°23' E 004°55'0 0.0
2015-Mar-19 15:32N 52°23' E 004°55'0 0.0
2015-Mar-19 14:32N 52°23' E 004°55'0 0.0
2015-Mar-19 13:32N 52°23' E 004°55'0 0.0
2015-Mar-19 12:32N 52°23' E 004°55'0 0.0
2015-Mar-19 11:31N 52°23' E 004°55'0 0.0
2015-Mar-19 10:31N 52°23' E 004°55'1 0.5
2015-Mar-19 09:33N 52°23' E 004°56'6 5.7
2015-Mar-19 08:33N 52°25' E 004°47'7 7.0
2015-Mar-19 07:34N 52°28' E 004°37'3 2.8
2015-Mar-19 06:34N 52°28' E 004°32'1010.1
2015-Mar-19 05:33N 52°29' E 004°15'1312.9
2015-Mar-19 04:33N 52°26' E 003°54'76 9.2
2015-Mar-18 20:18N 51°26' E 002°41'3 3.6
2015-Mar-18 19:33N 51°24' E 002°44'1414.2
2015-Mar-18 18:33N 51°24' E 003°07'5 4.5
2015-Mar-18 17:26N 51°20' E 003°12'0 0.0
2015-Mar-18 16:20N 51°20' E 003°12'0 0.0
2015-Mar-18 15:11N 51°20' E 003°12'0 0.0
2015-Mar-18 14:20N 51°20' E 003°12'0 0.0
2015-Mar-18 13:26N 51°20' E 003°12'0 0.0
2015-Mar-18 12:31N 51°20' E 003°12'0 0.0
2015-Mar-18 11:33N 51°20' E 003°12'0 0.0
2015-Mar-18 10:33N 51°20' E 003°12'0 0.0
2015-Mar-18 09:30N 51°20' E 003°12'0 0.2
2015-Mar-18 08:33N 51°21' E 003°12'8 7.7
2015-Mar-18 07:34N 51°24' E 003°01'1212.5
2015-Mar-18 06:33N 51°22' E 002°42'1111.0
2015-Mar-18 05:34N 51°20' E 002°24'1313.1
2015-Mar-18 04:33N 51°13' E 002°06'1312.9
2015-Mar-18 03:33N 51°07' E 001°48'  
Track history (hours):
 
Tides and Currents Weather Stations Pressure Air Temp Water Temp Dewpoint Dewpoint Depression Visibility Wind Speed Wind Dir Waves Ship Positions

Aidamar

Last reported at 2015-Mar-28 03:33 UTC. Time now 2015-Mar-28 03:57 UTC.
Position N 53°58' E 008°34'.

Length 253 m; draft 7.3 m.

Type: Passenger vessel. MMSI: 247312900.

Date/timePositionNaut miles runAvg speedWind from/ knotsBaromVisibWave heightAir tempDewpointWater temp
2015-Mar-28 03:33N 53°58' E 008°34'1616.1
2015-Mar-28 02:33N 53°59' E 008°07'2019.8
2015-Mar-28 01:33N 53°55' E 007°34'2020.4
2015-Mar-28 00:33N 53°50' E 007°00'4020.1
2015-Mar-27 22:33N 53°40' E 005°55'2019.9
2015-Mar-27 21:33N 53°34' E 005°23'2019.6
2015-Mar-27 20:33N 53°27' E 004°52'6018.6
2015-Mar-27 17:20N 52°33' E 004°08'1417.6
2015-Mar-27 16:34N 52°29' E 004°29'5 4.9
2015-Mar-27 15:33N 52°28' E 004°37'8 8.1
2015-Mar-27 14:34N 52°25' E 004°49'4 4.2
2015-Mar-27 13:33N 52°23' E 004°55'0 0.0
2015-Mar-27 12:33N 52°23' E 004°55'0 0.0
2015-Mar-27 11:33N 52°23' E 004°55'0 0.0
2015-Mar-27 10:33N 52°23' E 004°55'0 0.0
2015-Mar-27 09:33N 52°23' E 004°55'0 0.0
2015-Mar-27 08:33N 52°23' E 004°55'0 0.0
2015-Mar-27 07:33N 52°23' E 004°55'0 0.0
2015-Mar-27 06:33N 52°23' E 004°55'0 0.0
2015-Mar-27 05:33N 52°23' E 004°55'0 0.0
2015-Mar-27 04:33N 52°23' E 004°55'0 0.0
2015-Mar-27 03:33N 52°23' E 004°55'0 0.0
2015-Mar-27 02:33N 52°23' E 004°55'0 0.0
2015-Mar-27 01:33N 52°23' E 004°55'0 0.0
2015-Mar-27 00:33N 52°23' E 004°55'0 0.0
2015-Mar-26 23:33N 52°23' E 004°55'0 0.0
2015-Mar-26 22:33N 52°23' E 004°55'0 0.0
2015-Mar-26 21:33N 52°23' E 004°55'0 0.0
2015-Mar-26 20:33N 52°23' E 004°55'0 0.0
2015-Mar-26 19:33N 52°23' E 004°55'0 0.0
2015-Mar-26 18:33N 52°23' E 004°55'0 0.0
2015-Mar-26 17:33N 52°23' E 004°55'0 0.0
2015-Mar-26 16:33N 52°23' E 004°55'0 0.0
2015-Mar-26 15:33N 52°23' E 004°55'0 0.0
2015-Mar-26 14:32N 52°23' E 004°55'0 0.0
2015-Mar-26 13:32N 52°23' E 004°55'0 0.0
2015-Mar-26 12:29N 52°23' E 004°55'0 0.0
2015-Mar-26 11:32N 52°23' E 004°55'0 0.0
2015-Mar-26 10:32N 52°23' E 004°55'0 0.0
2015-Mar-26 09:32N 52°23' E 004°55'0 0.0
2015-Mar-26 08:32N 52°23' E 004°55'0 0.0
2015-Mar-26 07:32N 52°23' E 004°55'0 0.0
2015-Mar-26 06:29N 52°23' E 004°55'0 0.0
2015-Mar-26 05:33N 52°23' E 004°55'2 2.1
2015-Mar-26 04:33N 52°24' E 004°53'8 7.5
2015-Mar-26 03:34N 52°27' E 004°41'3 3.5
2015-Mar-26 02:33N 52°28' E 004°36'1010.2
2015-Mar-26 01:33N 52°28' E 004°19'1514.9
2015-Mar-26 00:33N 52°27' E 003°55'1615.9
2015-Mar-25 23:32N 52°18' E 003°33'1818.4
2015-Mar-25 22:32N 52°07' E 003°08'2218.1
2015-Mar-25 21:20N 51°49' E 002°48'1619.5
2015-Mar-25 20:32N 51°34' E 002°43'1010.4
2015-Mar-25 19:33N 51°24' E 002°46'1413.8
2015-Mar-25 18:33N 51°24' E 003°08'4 4.3
2015-Mar-25 17:33N 51°20' E 003°12'0 0.0
2015-Mar-25 16:27N 51°20' E 003°12'0 0.0
2015-Mar-25 15:30N 51°20' E 003°12'0 0.0
2015-Mar-25 14:30N 51°20' E 003°12'0 0.0
2015-Mar-25 13:33N 51°20' E 003°12'0 0.0
2015-Mar-25 12:33N 51°20' E 003°12'0 0.0
2015-Mar-25 11:33N 51°20' E 003°12'0 0.0
2015-Mar-25 10:33N 51°20' E 003°12'0 0.0
2015-Mar-25 09:33N 51°20' E 003°12'0 0.0
2015-Mar-25 08:33N 51°20' E 003°12'7 6.6
2015-Mar-25 07:33N 51°24' E 003°04'1313.4
2015-Mar-25 06:33N 51°21' E 002°43'1010.0
2015-Mar-25 05:33N 51°21' E 002°27'9 8.9
2015-Mar-25 04:33N 51°17' E 002°15'1313.1
2015-Mar-25 03:33N 51°10' E 001°57'1717.4
2015-Mar-25 02:33N 50°60' E 001°34'1916.5
2015-Mar-25 01:26N 50°43' E 001°24'8216.8
2015-Mar-24 20:32N 49°45' W 000°08'1414.6
2015-Mar-24 19:33N 49°31' W 000°04'7 7.0
2015-Mar-24 18:32N 49°29' E 000°06'0 0.0
2015-Mar-24 17:33N 49°29' E 000°06'0 0.0
2015-Mar-24 16:32N 49°29' E 000°06'0 0.0
2015-Mar-24 15:31N 49°29' E 000°06'0 0.0
2015-Mar-24 14:32N 49°29' E 000°06'0 0.0
2015-Mar-24 13:32N 49°29' E 000°06'0 0.0
2015-Mar-24 12:33N 49°29' E 000°06'0 0.0
2015-Mar-24 11:33N 49°29' E 000°06'0 0.0
2015-Mar-24 10:33N 49°29' E 000°06'0 0.0
2015-Mar-24 09:33N 49°29' E 000°06'0 0.0
2015-Mar-24 08:33N 49°29' E 000°06'0 0.0
2015-Mar-24 07:32N 49°29' E 000°06'0 0.0
2015-Mar-24 06:34N 49°29' E 000°06'1 1.0
2015-Mar-24 05:34N 49°29' E 000°05'1211.8
2015-Mar-24 04:34N 49°33' W 000°12'8 7.7
2015-Mar-24 03:33N 49°38' W 000°21'8 8.2
2015-Mar-24 02:33N 49°46' W 000°25'4515.1
2015-Mar-23 23:33N 50°28' W 000°49'1514.8
2015-Mar-23 22:33N 50°42' W 000°58'1111.5
2015-Mar-23 21:33N 50°46' W 001°15'7 7.2
2015-Mar-23 20:34N 50°52' W 001°22'2 2.1
2015-Mar-23 19:33N 50°53' W 001°24'0 0.0
2015-Mar-23 18:30N 50°53' W 001°24'0 0.0
2015-Mar-23 17:30N 50°53' W 001°24'0 0.0
2015-Mar-23 16:33N 50°53' W 001°24'0 0.0
2015-Mar-23 15:33N 50°53' W 001°24'0 0.0
2015-Mar-23 14:30N 50°53' W 001°24'0 0.0
2015-Mar-23 13:33N 50°53' W 001°24'0 0.0
2015-Mar-23 12:33N 50°53' W 001°24'0 0.0
2015-Mar-23 11:33N 50°53' W 001°24'0 0.0
2015-Mar-23 10:33N 50°53' W 001°24'0 0.0
2015-Mar-23 09:33N 50°53' W 001°24'0 0.0
2015-Mar-23 08:33N 50°53' W 001°24'0 0.2
2015-Mar-23 07:33N 50°53' W 001°24'6 6.0
2015-Mar-23 06:33N 50°49' W 001°18'1010.1
2015-Mar-23 05:33N 50°44' W 001°04'1212.4
2015-Mar-23 04:33N 50°36' W 000°48'1717.1
2015-Mar-23 03:33N 50°33' W 000°22'27 9.0
2015-Mar-23 00:33N 50°36' E 000°21'7 6.8
2015-Mar-22 23:33N 50°38' E 000°31'7 6.9
2015-Mar-22 22:33N 50°41' E 000°40'1413.6
2015-Mar-22 21:33N 50°49' E 000°58'1716.3
2015-Mar-22 20:32N 50°59' E 001°19'1717.6
2015-Mar-22 19:33N 51°11' E 001°39'1515.5
2015-Mar-22 18:34N 51°23' E 001°55'1413.8
2015-Mar-22 17:33N 51°34' E 002°08'1413.1
2015-Mar-22 16:29N 51°44' E 002°23'2813.0
2015-Mar-22 14:19N 52°06' E 002°53'2614.3
2015-Mar-22 12:32N 52°26' E 003°17'6815.4
2015-Mar-22 08:09N 53°17' E 004°30'914.7
2015-Mar-22 07:34N 53°26' E 004°35'1413.5
2015-Mar-22 06:33N 53°34' E 004°54'1413.8
2015-Mar-22 05:34N 53°38' E 005°15'1515.1
2015-Mar-22 04:34N 53°43' E 005°40'1616.1
2015-Mar-22 03:33N 53°48' E 006°06'4715.7
2015-Mar-22 00:34N 53°60' E 007°23'1514.6
2015-Mar-21 23:33N 54°02' E 007°48'1414.2
2015-Mar-21 22:33N 54°00' E 008°12'1414.5
2015-Mar-21 21:33N 53°58' E 008°36'1414.1
2015-Mar-21 20:33N 53°51' E 008°57'1414.1
2015-Mar-21 19:33N 53°50' E 009°21'1514.9
2015-Mar-21 18:34N 53°37' E 009°33'1312.7
2015-Mar-21 17:34N 53°33' E 009°53'2 1.8
2015-Mar-21 16:29N 53°33' E 009°56'0 0.0
2015-Mar-21 15:32N 53°33' E 009°56'0 0.0
2015-Mar-21 14:32N 53°33' E 009°56'0 0.0
2015-Mar-21 13:31N 53°33' E 009°56'0 0.0
2015-Mar-21 12:31N 53°33' E 009°56'0 0.0
2015-Mar-21 11:31N 53°33' E 009°56'0 0.0
2015-Mar-21 10:31N 53°33' E 009°56'0 0.0
2015-Mar-21 09:22N 53°33' E 009°56'0 0.0
2015-Mar-21 08:31N 53°33' E 009°56'0 0.0
2015-Mar-21 07:31N 53°33' E 009°56'0 0.0
2015-Mar-21 06:32N 53°33' E 009°56'4 4.2
2015-Mar-21 05:33N 53°33' E 009°49'1010.1
2015-Mar-21 04:33N 53°37' E 009°34'1211.7
2015-Mar-21 03:34N 53°47' E 009°23'1211.5
2015-Mar-21 02:33N 53°53' E 009°07'1211.6
2015-Mar-21 01:34N 53°50' E 008°47'1514.5
2015-Mar-21 00:33N 53°59' E 008°27'1714.8
2015-Mar-20 23:26N 53°58' E 007°59'1416.0
2015-Mar-20 22:33N 53°55' E 007°35'1716.8
2015-Mar-20 21:33N 53°51' E 007°08'39 9.9
2015-Mar-20 17:33N 53°41' E 006°04'7 7.4
2015-Mar-20 16:33N 53°38' E 005°52'7 6.7
2015-Mar-20 15:33N 53°36' E 005°41'7 7.0
2015-Mar-20 14:33N 53°34' E 005°30'7 6.7
2015-Mar-20 13:33N 53°32' E 005°19'7 6.6
2015-Mar-20 12:33N 53°30' E 005°08'6 6.5
2015-Mar-20 11:33N 53°28' E 004°58'7 6.6
2015-Mar-20 10:34N 53°25' E 004°48'7 6.4
2015-Mar-20 09:30N 53°20' E 004°40'8 6.9
2015-Mar-20 08:22N 53°13' E 004°34'23 7.4
2015-Mar-20 05:20N 52°53' E 004°17'19 8.8
2015-Mar-20 03:09N 52°35' E 004°07'915.0
2015-Mar-20 02:34N 52°30' E 004°19'1110.7
2015-Mar-20 01:34N 52°28' E 004°36'2 2.4
2015-Mar-20 00:33N 52°28' E 004°40'8 7.7
2015-Mar-19 23:34N 52°25' E 004°52'3 2.9
2015-Mar-19 22:32N 52°23' E 004°55'0 0.0
2015-Mar-19 21:32N 52°23' E 004°55'0 0.0
2015-Mar-19 20:32N 52°23' E 004°55'0 0.0
2015-Mar-19 19:32N 52°23' E 004°55'0 0.0
2015-Mar-19 18:32N 52°23' E 004°55'0 0.0
2015-Mar-19 17:32N 52°23' E 004°55'0 0.0
2015-Mar-19 16:32N 52°23' E 004°55'0 0.0
2015-Mar-19 15:32N 52°23' E 004°55'0 0.0
2015-Mar-19 14:32N 52°23' E 004°55'0 0.0
2015-Mar-19 13:32N 52°23' E 004°55'0 0.0
2015-Mar-19 12:32N 52°23' E 004°55'0 0.0
2015-Mar-19 11:31N 52°23' E 004°55'0 0.0
2015-Mar-19 10:31N 52°23' E 004°55'1 0.5
2015-Mar-19 09:33N 52°23' E 004°56'6 5.7
2015-Mar-19 08:33N 52°25' E 004°47'7 7.0
2015-Mar-19 07:34N 52°28' E 004°37'3 2.8
2015-Mar-19 06:34N 52°28' E 004°32'1010.1
2015-Mar-19 05:33N 52°29' E 004°15'1312.9
2015-Mar-19 04:33N 52°26' E 003°54'76 9.2
2015-Mar-18 20:18N 51°26' E 002°41'3 3.6
2015-Mar-18 19:33N 51°24' E 002°44'1414.2
2015-Mar-18 18:33N 51°24' E 003°07'5 4.5
2015-Mar-18 17:26N 51°20' E 003°12'0 0.0
2015-Mar-18 16:20N 51°20' E 003°12'0 0.0
2015-Mar-18 15:11N 51°20' E 003°12'0 0.0
2015-Mar-18 14:20N 51°20' E 003°12'0 0.0
2015-Mar-18 13:26N 51°20' E 003°12'0 0.0
2015-Mar-18 12:31N 51°20' E 003°12'0 0.0
2015-Mar-18 11:33N 51°20' E 003°12'0 0.0
2015-Mar-18 10:33N 51°20' E 003°12'0 0.0
2015-Mar-18 09:30N 51°20' E 003°12'0 0.2
2015-Mar-18 08:33N 51°21' E 003°12'8 7.7
2015-Mar-18 07:34N 51°24' E 003°01'1212.5
2015-Mar-18 06:33N 51°22' E 002°42'1111.0
2015-Mar-18 05:34N 51°20' E 002°24'1313.1
2015-Mar-18 04:33N 51°13' E 002°06'1312.9
2015-Mar-18 03:33N 51°07' E 001°48'  

Dump ship's entire track history